createdAt,value
2022-10-22T00:00:07.090Z,571.27
2022-10-22T00:00:17.093Z,571.19
2022-10-22T00:00:27.104Z,571.22
2022-10-22T00:00:37.098Z,571.22
2022-10-22T00:00:47.101Z,571.20
2022-10-22T00:00:57.085Z,571.26
2022-10-22T00:01:07.096Z,571.27
2022-10-22T00:01:17.102Z,571.31
2022-10-22T00:01:27.100Z,571.26
2022-10-22T00:01:37.103Z,571.24
2022-10-22T00:01:47.102Z,571.20
2022-10-22T00:01:57.105Z,571.16
2022-10-22T00:02:07.113Z,571.20
2022-10-22T00:02:17.143Z,571.13
2022-10-22T00:02:27.155Z,571.18
2022-10-22T00:02:37.294Z,571.24
2022-10-22T00:02:47.150Z,571.23
2022-10-22T00:02:57.111Z,571.24
2022-10-22T00:03:07.147Z,571.14
2022-10-22T00:03:17.107Z,571.20
2022-10-22T00:03:27.110Z,571.12
2022-10-22T00:03:37.110Z,571.04
2022-10-22T00:03:47.112Z,571.04
2022-10-22T00:03:57.111Z,571.02
2022-10-22T00:04:07.113Z,570.89
2022-10-22T00:04:17.115Z,570.87
2022-10-22T00:04:31.444Z,570.70
2022-10-22T00:04:38.139Z,570.58
2022-10-22T00:04:47.118Z,570.57
2022-10-22T00:04:57.283Z,570.43
2022-10-22T00:05:07.119Z,570.43
2022-10-22T00:05:17.118Z,570.31
2022-10-22T00:05:27.122Z,570.29
2022-10-22T00:05:37.120Z,570.16
2022-10-22T00:05:47.120Z,570.06
2022-10-22T00:05:57.123Z,570.05
2022-10-22T00:06:07.120Z,570.06
2022-10-22T00:06:17.123Z,570.01
2022-10-22T00:06:27.122Z,569.96
2022-10-22T00:06:37.125Z,570.01
2022-10-22T00:06:47.129Z,569.98
2022-10-22T00:06:57.125Z,570.07
2022-10-22T00:07:07.112Z,570.07
2022-10-22T00:07:17.126Z,570.10
2022-10-22T00:07:27.127Z,570.09
2022-10-22T00:07:37.403Z,570.10
2022-10-22T00:07:47.142Z,570.11
2022-10-22T00:07:57.131Z,570.22
2022-10-22T00:08:07.131Z,570.26
2022-10-22T00:08:17.137Z,570.30
2022-10-22T00:08:27.132Z,570.37
2022-10-22T00:08:37.227Z,570.36
2022-10-22T00:08:47.172Z,570.44
2022-10-22T00:08:57.230Z,570.56
2022-10-22T00:09:07.208Z,570.59
2022-10-22T00:09:17.181Z,570.62
2022-10-22T00:09:27.139Z,570.63
2022-10-22T00:09:37.137Z,570.72
2022-10-22T00:09:47.141Z,570.76
2022-10-22T00:09:57.138Z,570.84
2022-10-22T00:10:07.139Z,570.90
2022-10-22T00:10:17.145Z,570.90
2022-10-22T00:10:27.143Z,570.90
2022-10-22T00:10:37.143Z,570.86
2022-10-22T00:10:47.146Z,570.96
2022-10-22T00:10:57.144Z,570.95
2022-10-22T00:11:07.146Z,570.91
2022-10-22T00:11:17.138Z,570.95
2022-10-22T00:11:27.150Z,570.93
2022-10-22T00:11:37.148Z,570.92
2022-10-22T00:11:47.154Z,570.90
2022-10-22T00:11:57.148Z,571.02
2022-10-22T00:12:07.151Z,571.05
2022-10-22T00:12:17.152Z,571.09
2022-10-22T00:12:27.152Z,571.09
2022-10-22T00:12:37.152Z,571.11
2022-10-22T00:12:47.157Z,571.07
2022-10-22T00:12:57.140Z,571.12
2022-10-22T00:13:07.154Z,571.14
2022-10-22T00:13:17.157Z,571.20
2022-10-22T00:13:27.154Z,571.18
2022-10-22T00:13:37.275Z,571.25
2022-10-22T00:13:57.144Z,571.20
2022-10-22T00:14:07.183Z,571.24
2022-10-22T00:14:17.157Z,571.21
2022-10-22T00:14:27.156Z,571.22
2022-10-22T00:14:37.159Z,571.17
2022-10-22T00:14:47.159Z,571.24
2022-10-22T00:14:57.162Z,571.23
2022-10-22T00:15:07.164Z,571.21
2022-10-22T00:15:17.161Z,571.15
2022-10-22T00:15:27.147Z,571.22
2022-10-22T00:15:37.163Z,571.23
2022-10-22T00:15:47.172Z,571.22
2022-10-22T00:15:57.168Z,571.29
2022-10-22T00:16:07.166Z,571.28
2022-10-22T00:16:17.165Z,571.27
2022-10-22T00:16:27.165Z,571.25
2022-10-22T00:16:37.165Z,571.32
2022-10-22T00:16:47.171Z,571.34
2022-10-22T00:16:57.164Z,571.36
2022-10-22T00:17:11.181Z,571.39
2022-10-22T00:17:17.170Z,571.39
2022-10-22T00:17:27.170Z,571.47
2022-10-22T00:17:37.508Z,571.48
2022-10-22T00:17:47.172Z,571.56
2022-10-22T00:17:57.172Z,571.55
2022-10-22T00:18:07.176Z,571.58
2022-10-22T00:18:17.175Z,571.66
2022-10-22T00:18:27.175Z,571.74
2022-10-22T00:18:37.174Z,571.79
2022-10-22T00:18:47.177Z,571.95
2022-10-22T00:18:57.175Z,571.97
2022-10-22T00:19:07.175Z,572.12
2022-10-22T00:19:17.175Z,572.19
2022-10-22T00:19:27.175Z,572.20
2022-10-22T00:19:37.183Z,572.37
2022-10-22T00:19:47.178Z,572.41
2022-10-22T00:19:57.179Z,572.49
2022-10-22T00:20:07.186Z,572.63
2022-10-22T00:20:17.180Z,572.63
2022-10-22T00:20:27.182Z,572.69
2022-10-22T00:20:37.188Z,572.84
2022-10-22T00:20:47.182Z,572.83
2022-10-22T00:20:57.186Z,572.88
2022-10-22T00:21:07.190Z,572.85
2022-10-22T00:21:17.186Z,572.90
2022-10-22T00:21:27.184Z,572.86
2022-10-22T00:21:37.188Z,572.81
2022-10-22T00:21:47.192Z,572.87
2022-10-22T00:21:57.186Z,572.82
2022-10-22T00:22:07.188Z,572.79
2022-10-22T00:22:17.189Z,572.78
2022-10-22T00:22:27.193Z,572.74
2022-10-22T00:22:37.198Z,572.82
2022-10-22T00:22:47.205Z,572.72
2022-10-22T00:22:57.196Z,572.78
2022-10-22T00:23:07.199Z,572.73
2022-10-22T00:23:17.195Z,572.68
2022-10-22T00:23:27.195Z,572.72
2022-10-22T00:23:37.196Z,572.67
2022-10-22T00:23:47.199Z,572.59
2022-10-22T00:23:57.195Z,572.56
2022-10-22T00:24:07.198Z,572.49
2022-10-22T00:24:17.196Z,572.38
2022-10-22T00:24:27.197Z,572.30
2022-10-22T00:24:37.202Z,572.21
2022-10-22T00:24:47.198Z,572.22
2022-10-22T00:24:57.199Z,572.13
2022-10-22T00:25:07.205Z,572.04
2022-10-22T00:25:17.200Z,572.12
2022-10-22T00:25:27.200Z,572.09
2022-10-22T00:25:37.204Z,572.00
2022-10-22T00:25:47.236Z,572.02
2022-10-22T00:25:57.205Z,571.99
2022-10-22T00:26:07.207Z,571.97
2022-10-22T00:26:17.205Z,571.96
2022-10-22T00:26:27.207Z,571.87
2022-10-22T00:26:37.210Z,571.88
2022-10-22T00:26:47.208Z,571.82
2022-10-22T00:26:57.210Z,571.85
2022-10-22T00:27:07.213Z,571.80
2022-10-22T00:27:17.212Z,571.84
2022-10-22T00:27:27.213Z,571.78
2022-10-22T00:27:37.287Z,571.77
2022-10-22T00:27:47.199Z,571.80
2022-10-22T00:27:57.215Z,571.78
2022-10-22T00:28:07.215Z,571.76
2022-10-22T00:28:17.268Z,571.74
2022-10-22T00:28:27.219Z,571.77
2022-10-22T00:28:37.219Z,571.83
2022-10-22T00:28:47.218Z,571.83
2022-10-22T00:28:57.218Z,571.81
2022-10-22T00:29:07.221Z,571.80
2022-10-22T00:29:17.217Z,571.89
2022-10-22T00:29:27.219Z,571.88
2022-10-22T00:29:37.229Z,571.83
2022-10-22T00:29:47.222Z,571.94
2022-10-22T00:29:57.226Z,571.93
2022-10-22T00:30:07.222Z,571.95
2022-10-22T00:30:17.225Z,571.89
2022-10-22T00:30:27.213Z,571.93
2022-10-22T00:30:37.228Z,571.99
2022-10-22T00:30:47.225Z,571.96
2022-10-22T00:30:57.228Z,572.10
2022-10-22T00:31:07.227Z,572.10
2022-10-22T00:31:17.226Z,572.12
2022-10-22T00:31:27.229Z,572.13
2022-10-22T00:31:37.230Z,572.21
2022-10-22T00:31:47.252Z,572.15
2022-10-22T00:31:57.254Z,572.25
2022-10-22T00:32:07.232Z,572.27
2022-10-22T00:32:17.232Z,572.28
2022-10-22T00:32:27.232Z,572.31
2022-10-22T00:32:37.544Z,572.29
2022-10-22T00:32:47.235Z,572.28
2022-10-22T00:32:57.237Z,572.30
2022-10-22T00:33:07.237Z,572.42
2022-10-22T00:33:17.236Z,572.38
2022-10-22T00:33:27.248Z,572.33
2022-10-22T00:33:37.237Z,572.37
2022-10-22T00:33:47.240Z,572.35
2022-10-22T00:33:57.239Z,572.39
2022-10-22T00:34:07.241Z,572.40
2022-10-22T00:34:17.246Z,572.38
2022-10-22T00:34:27.244Z,572.46
2022-10-22T00:34:37.245Z,572.43
2022-10-22T00:34:47.230Z,572.40
2022-10-22T00:34:57.247Z,572.40
2022-10-22T00:35:07.255Z,572.51
2022-10-22T00:35:17.247Z,572.48
2022-10-22T00:35:27.248Z,572.45
2022-10-22T00:35:37.248Z,572.49
2022-10-22T00:35:47.249Z,572.43
2022-10-22T00:35:57.251Z,572.52
2022-10-22T00:36:07.253Z,572.44
2022-10-22T00:36:17.253Z,572.42
2022-10-22T00:36:27.255Z,572.40
2022-10-22T00:36:37.256Z,572.34
2022-10-22T00:36:47.256Z,572.38
2022-10-22T00:36:57.258Z,572.34
2022-10-22T00:37:07.259Z,572.33
2022-10-22T00:37:17.255Z,572.27
2022-10-22T00:37:27.255Z,572.19
2022-10-22T00:37:37.259Z,572.22
2022-10-22T00:37:47.254Z,572.17
2022-10-22T00:37:57.257Z,572.14
2022-10-22T00:38:07.262Z,572.12
2022-10-22T00:38:17.259Z,572.02
2022-10-22T00:38:27.260Z,571.97
2022-10-22T00:38:37.261Z,571.96
2022-10-22T00:38:47.269Z,571.98
2022-10-22T00:38:57.264Z,571.97
2022-10-22T00:39:07.260Z,572.03
2022-10-22T00:39:17.267Z,571.96
2022-10-22T00:39:27.270Z,572.00
2022-10-22T00:39:37.271Z,571.95
2022-10-22T00:39:47.269Z,571.92
2022-10-22T00:39:57.269Z,571.97
2022-10-22T00:40:07.267Z,571.96
2022-10-22T00:40:17.276Z,571.90
2022-10-22T00:40:27.278Z,571.91
2022-10-22T00:40:37.271Z,571.94
2022-10-22T00:40:47.277Z,572.03
2022-10-22T00:40:57.333Z,572.06
2022-10-22T00:41:07.278Z,572.05
2022-10-22T00:41:17.280Z,572.07
2022-10-22T00:41:27.296Z,572.14
2022-10-22T00:41:37.276Z,572.16
2022-10-22T00:41:47.280Z,572.12
2022-10-22T00:41:57.277Z,572.22
2022-10-22T00:42:07.287Z,572.22
2022-10-22T00:42:17.283Z,572.24
2022-10-22T00:42:27.278Z,572.31
2022-10-22T00:42:37.668Z,572.29
2022-10-22T00:42:47.284Z,572.37
2022-10-22T00:42:57.282Z,572.34
2022-10-22T00:43:07.281Z,572.42
2022-10-22T00:43:17.291Z,572.45
2022-10-22T00:43:27.282Z,572.47
2022-10-22T00:43:37.282Z,572.48
2022-10-22T00:43:47.283Z,572.46
2022-10-22T00:43:57.288Z,572.51
2022-10-22T00:44:07.285Z,572.56
2022-10-22T00:44:17.282Z,572.57
2022-10-22T00:44:27.287Z,572.48
2022-10-22T00:44:37.285Z,572.55
2022-10-22T00:44:47.284Z,572.54
2022-10-22T00:44:57.287Z,572.52
2022-10-22T00:45:07.286Z,572.44
2022-10-22T00:45:17.298Z,572.37
2022-10-22T00:45:27.289Z,572.35
2022-10-22T00:45:37.293Z,572.26
2022-10-22T00:45:47.290Z,572.30
2022-10-22T00:45:57.290Z,572.21
2022-10-22T00:46:07.292Z,572.18
2022-10-22T00:46:17.291Z,572.08
2022-10-22T00:46:27.290Z,572.01
2022-10-22T00:46:37.292Z,571.98
2022-10-22T00:46:47.294Z,571.92
2022-10-22T00:46:57.295Z,571.90
2022-10-22T00:47:07.299Z,571.79
2022-10-22T00:47:17.301Z,571.69
2022-10-22T00:47:27.296Z,571.69
2022-10-22T00:47:37.295Z,571.63
2022-10-22T00:47:47.301Z,571.56
2022-10-22T00:47:57.300Z,571.51
2022-10-22T00:48:07.300Z,571.52
2022-10-22T00:48:17.303Z,571.40
2022-10-22T00:48:27.301Z,571.44
2022-10-22T00:48:37.301Z,571.36
2022-10-22T00:48:47.302Z,571.28
2022-10-22T00:48:57.301Z,571.32
2022-10-22T00:49:07.304Z,571.21
2022-10-22T00:49:17.301Z,571.25
2022-10-22T00:49:27.302Z,571.24
2022-10-22T00:49:37.303Z,571.18
2022-10-22T00:49:47.303Z,571.13
2022-10-22T00:49:57.345Z,571.13
2022-10-22T00:50:07.311Z,571.12
2022-10-22T00:50:17.309Z,571.09
2022-10-22T00:50:27.305Z,571.05
2022-10-22T00:50:37.313Z,571.08
2022-10-22T00:50:47.312Z,571.07
2022-10-22T00:50:57.309Z,571.07
2022-10-22T00:51:07.314Z,571.02
2022-10-22T00:51:17.313Z,571.01
2022-10-22T00:51:27.314Z,571.01
2022-10-22T00:51:37.317Z,570.99
2022-10-22T00:51:47.313Z,570.95
2022-10-22T00:51:57.317Z,570.91
2022-10-22T00:52:07.330Z,570.96
2022-10-22T00:52:17.317Z,570.91
2022-10-22T00:52:27.315Z,570.87
2022-10-22T00:52:37.388Z,570.85
2022-10-22T00:52:47.318Z,570.83
2022-10-22T00:52:57.316Z,570.85
2022-10-22T00:53:07.321Z,570.83
2022-10-22T00:53:17.324Z,570.79
2022-10-22T00:53:27.319Z,570.79
2022-10-22T00:53:37.319Z,570.76
2022-10-22T00:53:47.321Z,570.82
2022-10-22T00:53:57.326Z,570.77
2022-10-22T00:54:07.321Z,570.83
2022-10-22T00:54:17.326Z,570.79
2022-10-22T00:54:27.307Z,570.79
2022-10-22T00:54:37.323Z,570.78
2022-10-22T00:54:47.323Z,570.85
2022-10-22T00:54:57.323Z,570.81
2022-10-22T00:55:07.326Z,570.88
2022-10-22T00:55:17.330Z,570.89
2022-10-22T00:55:27.326Z,570.92
2022-10-22T00:55:37.326Z,570.95
2022-10-22T00:55:47.326Z,570.94
2022-10-22T00:55:57.331Z,571.04
2022-10-22T00:56:07.332Z,571.07
2022-10-22T00:56:17.332Z,571.09
2022-10-22T00:56:27.329Z,571.14
2022-10-22T00:56:37.332Z,571.15
2022-10-22T00:56:47.337Z,571.22
2022-10-22T00:56:57.332Z,571.20
2022-10-22T00:57:07.337Z,571.26
2022-10-22T00:57:17.333Z,571.26
2022-10-22T00:57:27.349Z,571.35
2022-10-22T00:57:37.336Z,571.28
2022-10-22T00:57:47.334Z,571.36
2022-10-22T00:57:57.337Z,571.35
2022-10-22T00:58:07.346Z,571.32
2022-10-22T00:58:17.340Z,571.36
2022-10-22T00:58:27.339Z,571.30
2022-10-22T00:58:37.339Z,571.31
2022-10-22T00:58:47.337Z,571.26
2022-10-22T00:58:57.406Z,571.28
2022-10-22T00:59:17.351Z,571.32
2022-10-22T00:59:27.346Z,571.29
2022-10-22T00:59:37.343Z,571.25
2022-10-22T00:59:47.327Z,571.26
2022-10-22T00:59:57.350Z,571.28
2022-10-22T01:00:07.350Z,571.23
2022-10-22T01:00:17.350Z,571.15
2022-10-22T01:00:27.355Z,571.06
2022-10-22T01:00:37.416Z,571.10
2022-10-22T01:00:47.381Z,571.03
2022-10-22T01:00:57.379Z,571.01
2022-10-22T01:01:07.429Z,570.92
2022-10-22T01:01:17.368Z,570.92
2022-10-22T01:01:27.401Z,570.81
2022-10-22T01:01:37.353Z,570.76
2022-10-22T01:01:47.356Z,570.72
2022-10-22T01:01:57.355Z,570.62
2022-10-22T01:02:07.359Z,570.58
2022-10-22T01:02:17.358Z,570.42
2022-10-22T01:02:27.358Z,570.29
2022-10-22T01:02:37.501Z,570.24
2022-10-22T01:02:47.358Z,570.06
2022-10-22T01:02:57.359Z,569.87
2022-10-22T01:03:07.360Z,569.77
2022-10-22T01:03:17.360Z,569.61
2022-10-22T01:03:27.361Z,569.51
2022-10-22T01:03:37.368Z,569.35
2022-10-22T01:03:47.360Z,569.24
2022-10-22T01:03:57.363Z,569.18
2022-10-22T01:04:07.367Z,569.11
2022-10-22T01:04:17.368Z,569.03
2022-10-22T01:04:27.366Z,568.97
2022-10-22T01:04:37.366Z,568.88
2022-10-22T01:04:47.365Z,568.81
2022-10-22T01:04:57.364Z,568.86
2022-10-22T01:05:07.377Z,568.82
2022-10-22T01:05:17.371Z,568.82
2022-10-22T01:05:27.371Z,568.90
2022-10-22T01:05:37.369Z,568.95
2022-10-22T01:05:47.368Z,568.97
2022-10-22T01:05:57.370Z,568.99
2022-10-22T01:06:07.373Z,569.16
2022-10-22T01:06:17.371Z,569.23
2022-10-22T01:06:27.371Z,569.36
2022-10-22T01:06:37.376Z,569.41
2022-10-22T01:06:47.373Z,569.53
2022-10-22T01:06:57.376Z,569.61
2022-10-22T01:07:07.377Z,569.71
2022-10-22T01:07:17.378Z,569.79
2022-10-22T01:07:27.378Z,569.91
2022-10-22T01:07:37.375Z,569.92
2022-10-22T01:07:47.377Z,570.07
2022-10-22T01:07:57.412Z,570.10
2022-10-22T01:08:07.416Z,570.17
2022-10-22T01:08:17.386Z,570.19
2022-10-22T01:08:27.380Z,570.26
2022-10-22T01:08:37.437Z,570.30
2022-10-22T01:08:47.484Z,570.33
2022-10-22T01:08:57.407Z,570.37
2022-10-22T01:09:07.429Z,570.37
2022-10-22T01:09:17.391Z,570.44
2022-10-22T01:09:27.413Z,570.45
2022-10-22T01:09:37.386Z,570.46
2022-10-22T01:09:47.395Z,570.55
2022-10-22T01:09:57.394Z,570.58
2022-10-22T01:10:07.388Z,570.56
2022-10-22T01:10:17.390Z,570.65
2022-10-22T01:10:27.390Z,570.64
2022-10-22T01:10:37.393Z,570.65
2022-10-22T01:10:47.391Z,570.65
2022-10-22T01:10:57.395Z,570.68
2022-10-22T01:11:07.394Z,570.71
2022-10-22T01:11:17.396Z,570.79
2022-10-22T01:11:27.393Z,570.82
2022-10-22T01:11:37.393Z,570.88
2022-10-22T01:11:47.398Z,570.91
2022-10-22T01:11:57.397Z,570.87
2022-10-22T01:12:07.414Z,571.02
2022-10-22T01:12:17.403Z,571.04
2022-10-22T01:12:27.407Z,571.03
2022-10-22T01:12:37.633Z,571.16
2022-10-22T01:12:47.398Z,571.17
2022-10-22T01:12:57.402Z,571.19
2022-10-22T01:13:07.402Z,571.21
2022-10-22T01:13:17.436Z,571.23
2022-10-22T01:13:27.404Z,571.34
2022-10-22T01:13:37.403Z,571.36
2022-10-22T01:13:47.407Z,571.35
2022-10-22T01:13:57.406Z,571.36
2022-10-22T01:14:07.412Z,571.43
2022-10-22T01:14:17.412Z,571.43
2022-10-22T01:14:27.437Z,571.41
2022-10-22T01:14:37.414Z,571.48
2022-10-22T01:14:47.409Z,571.41
2022-10-22T01:14:57.397Z,571.41
2022-10-22T01:15:07.413Z,571.44
2022-10-22T01:15:17.414Z,571.38
2022-10-22T01:15:27.413Z,571.42
2022-10-22T01:15:37.415Z,571.40
2022-10-22T01:15:47.414Z,571.41
2022-10-22T01:15:57.416Z,571.29
2022-10-22T01:16:07.416Z,571.28
2022-10-22T01:16:17.403Z,571.28
2022-10-22T01:16:27.417Z,571.23
2022-10-22T01:16:37.417Z,571.15
2022-10-22T01:16:47.418Z,571.10
2022-10-22T01:16:57.423Z,571.09
2022-10-22T01:17:07.529Z,571.01
2022-10-22T01:17:17.442Z,570.94
2022-10-22T01:17:27.431Z,570.91
2022-10-22T01:17:37.713Z,570.78
2022-10-22T01:17:47.424Z,570.80
2022-10-22T01:17:57.425Z,570.73
2022-10-22T01:18:07.429Z,570.64
2022-10-22T01:18:17.424Z,570.66
2022-10-22T01:18:27.437Z,570.56
2022-10-22T01:18:37.427Z,570.57
2022-10-22T01:18:47.427Z,570.51
2022-10-22T01:18:57.429Z,570.51
2022-10-22T01:19:07.431Z,570.40
2022-10-22T01:19:17.433Z,570.42
2022-10-22T01:19:27.433Z,570.41
2022-10-22T01:19:37.440Z,570.35
2022-10-22T01:19:47.434Z,570.30
2022-10-22T01:19:57.435Z,570.26
2022-10-22T01:20:07.437Z,570.33
2022-10-22T01:20:17.437Z,570.28
2022-10-22T01:20:27.439Z,570.25
2022-10-22T01:20:37.437Z,570.26
2022-10-22T01:20:47.440Z,570.20
2022-10-22T01:20:57.435Z,570.25
2022-10-22T01:21:07.443Z,570.21
2022-10-22T01:21:17.467Z,570.18
2022-10-22T01:21:27.444Z,570.22
2022-10-22T01:21:37.444Z,570.19
2022-10-22T01:21:47.455Z,570.14
2022-10-22T01:21:57.448Z,570.22
2022-10-22T01:22:07.491Z,570.19
2022-10-22T01:22:17.448Z,570.16
2022-10-22T01:22:27.450Z,570.16
2022-10-22T01:22:37.468Z,570.12
2022-10-22T01:22:47.434Z,570.17
2022-10-22T01:22:57.434Z,570.19
2022-10-22T01:23:07.438Z,570.19
2022-10-22T01:23:17.453Z,570.21
2022-10-22T01:23:27.453Z,570.23
2022-10-22T01:23:37.466Z,570.23
2022-10-22T01:23:47.454Z,570.26
2022-10-22T01:23:57.455Z,570.35
2022-10-22T01:24:07.455Z,570.31
2022-10-22T01:24:17.454Z,570.44
2022-10-22T01:24:27.453Z,570.47
2022-10-22T01:24:37.455Z,570.47
2022-10-22T01:24:47.453Z,570.55
2022-10-22T01:24:57.459Z,570.58
2022-10-22T01:25:07.458Z,570.70
2022-10-22T01:25:17.476Z,570.66
2022-10-22T01:25:27.460Z,570.73
2022-10-22T01:25:37.459Z,570.82
2022-10-22T01:25:47.460Z,570.85
2022-10-22T01:25:57.461Z,570.91
2022-10-22T01:26:07.464Z,570.91
2022-10-22T01:26:17.509Z,570.99
2022-10-22T01:26:27.469Z,571.01
2022-10-22T01:26:37.473Z,571.00
2022-10-22T01:26:47.466Z,571.07
2022-10-22T01:26:57.463Z,571.07
2022-10-22T01:27:07.466Z,571.04
2022-10-22T01:27:17.469Z,571.02
2022-10-22T01:27:27.472Z,571.10
2022-10-22T01:27:37.771Z,571.07
2022-10-22T01:27:47.469Z,571.07
2022-10-22T01:27:57.468Z,571.03
2022-10-22T01:28:07.467Z,570.97
2022-10-22T01:28:17.468Z,571.02
2022-10-22T01:28:27.471Z,571.01
2022-10-22T01:28:37.473Z,570.94
2022-10-22T01:28:47.478Z,570.97
2022-10-22T01:28:57.460Z,570.94
2022-10-22T01:29:07.476Z,570.88
2022-10-22T01:29:17.479Z,570.88
2022-10-22T01:29:27.476Z,570.88
2022-10-22T01:29:37.476Z,570.86
2022-10-22T01:29:47.477Z,570.81
2022-10-22T01:29:57.477Z,570.84
2022-10-22T01:30:07.476Z,570.81
2022-10-22T01:30:17.478Z,570.79
2022-10-22T01:30:27.478Z,570.75
2022-10-22T01:30:37.481Z,570.78
2022-10-22T01:30:47.483Z,570.75
2022-10-22T01:30:57.482Z,570.70
2022-10-22T01:31:07.482Z,570.71
2022-10-22T01:31:17.484Z,570.70
2022-10-22T01:31:27.489Z,570.74
2022-10-22T01:31:37.486Z,570.67
2022-10-22T01:31:47.486Z,570.72
2022-10-22T01:31:57.480Z,570.78
2022-10-22T01:32:07.473Z,570.72
2022-10-22T01:32:17.475Z,570.79
2022-10-22T01:32:27.495Z,570.80
2022-10-22T01:32:37.490Z,570.83
2022-10-22T01:32:47.494Z,570.78
2022-10-22T01:32:57.500Z,570.89
2022-10-22T01:33:07.491Z,570.90
2022-10-22T01:33:17.493Z,570.95
2022-10-22T01:33:27.502Z,570.98
2022-10-22T01:33:37.497Z,571.00
2022-10-22T01:33:47.496Z,571.03
2022-10-22T01:33:57.501Z,571.02
2022-10-22T01:34:07.499Z,571.07
2022-10-22T01:34:17.483Z,571.07
2022-10-22T01:34:27.496Z,571.10
2022-10-22T01:34:37.484Z,571.10
2022-10-22T01:34:47.503Z,571.14
2022-10-22T01:34:57.507Z,571.16
2022-10-22T01:35:07.487Z,571.14
2022-10-22T01:35:17.499Z,571.12
2022-10-22T01:35:27.560Z,571.16
2022-10-22T01:35:37.507Z,571.21
2022-10-22T01:35:47.498Z,571.16
2022-10-22T01:35:57.502Z,571.21
2022-10-22T01:36:07.505Z,571.17
2022-10-22T01:36:17.504Z,571.22
2022-10-22T01:36:27.507Z,571.21
2022-10-22T01:36:37.511Z,571.20
2022-10-22T01:36:47.510Z,571.27
2022-10-22T01:36:57.513Z,571.27
2022-10-22T01:37:07.512Z,571.25
2022-10-22T01:37:17.514Z,571.23
2022-10-22T01:37:27.514Z,571.31
2022-10-22T01:37:37.746Z,571.32
2022-10-22T01:37:47.500Z,571.32
2022-10-22T01:37:57.514Z,571.30
2022-10-22T01:38:07.514Z,571.30
2022-10-22T01:38:17.519Z,571.35
2022-10-22T01:38:27.522Z,571.38
2022-10-22T01:38:37.518Z,571.39
2022-10-22T01:38:47.518Z,571.43
2022-10-22T01:38:57.522Z,571.37
2022-10-22T01:39:07.522Z,571.45
2022-10-22T01:39:17.523Z,571.47
2022-10-22T01:39:27.527Z,571.43
2022-10-22T01:39:37.524Z,571.46
2022-10-22T01:39:47.523Z,571.42
2022-10-22T01:39:57.522Z,571.48
2022-10-22T01:40:07.526Z,571.42
2022-10-22T01:40:17.511Z,571.48
2022-10-22T01:40:27.527Z,571.46
2022-10-22T01:40:37.524Z,571.48
2022-10-22T01:40:47.526Z,571.48
2022-10-22T01:40:57.531Z,571.50
2022-10-22T01:41:07.527Z,571.49
2022-10-22T01:41:17.527Z,571.50
2022-10-22T01:41:27.555Z,571.45
2022-10-22T01:41:37.515Z,571.49
2022-10-22T01:41:47.516Z,571.48
2022-10-22T01:41:57.530Z,571.49
2022-10-22T01:42:07.532Z,571.42
2022-10-22T01:42:17.534Z,571.51
2022-10-22T01:42:27.531Z,571.47
2022-10-22T01:42:37.536Z,571.44
2022-10-22T01:42:47.535Z,571.50
2022-10-22T01:42:57.536Z,571.50
2022-10-22T01:43:07.519Z,571.48
2022-10-22T01:43:17.537Z,571.46
2022-10-22T01:43:27.537Z,571.47
2022-10-22T01:43:37.537Z,571.54
2022-10-22T01:43:47.542Z,571.53
2022-10-22T01:43:57.539Z,571.54
2022-10-22T01:44:07.539Z,571.52
2022-10-22T01:44:17.540Z,571.64
2022-10-22T01:44:27.552Z,571.66
2022-10-22T01:44:37.695Z,571.69
2022-10-22T01:44:47.544Z,571.69
2022-10-22T01:44:57.544Z,571.67
2022-10-22T01:45:07.550Z,571.76
2022-10-22T01:45:17.542Z,571.78
2022-10-22T01:45:27.547Z,571.85
2022-10-22T01:45:37.565Z,571.91
2022-10-22T01:45:47.547Z,571.91
2022-10-22T01:45:57.547Z,571.97
2022-10-22T01:46:07.549Z,571.97
2022-10-22T01:46:17.546Z,572.03
2022-10-22T01:46:27.552Z,572.03
2022-10-22T01:46:37.551Z,572.01
2022-10-22T01:46:47.554Z,572.05
2022-10-22T01:46:57.552Z,572.14
2022-10-22T01:47:07.552Z,572.12
2022-10-22T01:47:17.559Z,572.18
2022-10-22T01:47:27.552Z,572.16
2022-10-22T01:47:37.909Z,572.21
2022-10-22T01:47:47.571Z,572.28
2022-10-22T01:47:57.560Z,572.26
2022-10-22T01:48:07.557Z,572.27
2022-10-22T01:48:17.556Z,572.26
2022-10-22T01:48:27.563Z,572.32
2022-10-22T01:48:37.563Z,572.31
2022-10-22T01:48:47.558Z,572.43
2022-10-22T01:48:57.559Z,572.43
2022-10-22T01:49:07.562Z,572.40
2022-10-22T01:49:17.562Z,572.45
2022-10-22T01:49:27.563Z,572.47
2022-10-22T01:49:37.560Z,572.58
2022-10-22T01:49:47.562Z,572.53
2022-10-22T01:49:57.564Z,572.67
2022-10-22T01:50:07.571Z,572.69
2022-10-22T01:50:17.567Z,572.71
2022-10-22T01:50:27.565Z,572.82
2022-10-22T01:50:37.567Z,572.80
2022-10-22T01:50:47.564Z,572.90
2022-10-22T01:50:57.567Z,572.89
2022-10-22T01:51:07.566Z,572.94
2022-10-22T01:51:17.565Z,573.04
2022-10-22T01:51:27.568Z,573.02
2022-10-22T01:51:37.567Z,573.11
2022-10-22T01:51:47.570Z,573.13
2022-10-22T01:51:57.573Z,573.16
2022-10-22T01:52:07.579Z,573.16
2022-10-22T01:52:17.574Z,573.18
2022-10-22T01:52:27.574Z,573.20
2022-10-22T01:52:37.579Z,573.20
2022-10-22T01:52:47.581Z,573.26
2022-10-22T01:52:57.576Z,573.24
2022-10-22T01:53:07.586Z,573.32
2022-10-22T01:53:17.579Z,573.25
2022-10-22T01:53:27.606Z,573.33
2022-10-22T01:53:37.627Z,573.33
2022-10-22T01:53:47.582Z,573.33
2022-10-22T01:53:57.587Z,573.31
2022-10-22T01:54:07.591Z,573.30
2022-10-22T01:54:17.584Z,573.39
2022-10-22T01:54:27.585Z,573.37
2022-10-22T01:54:37.591Z,573.38
2022-10-22T01:54:47.604Z,573.45
2022-10-22T01:54:57.590Z,573.42
2022-10-22T01:55:07.599Z,573.40
2022-10-22T01:55:17.588Z,573.45
2022-10-22T01:55:27.602Z,573.50
2022-10-22T01:55:37.578Z,573.50
2022-10-22T01:55:47.592Z,573.51
2022-10-22T01:55:57.592Z,573.48
2022-10-22T01:56:07.593Z,573.51
2022-10-22T01:56:17.596Z,573.47
2022-10-22T01:56:27.593Z,573.45
2022-10-22T01:56:37.586Z,573.48
2022-10-22T01:56:47.595Z,573.55
2022-10-22T01:56:57.599Z,573.57
2022-10-22T01:57:07.596Z,573.54
2022-10-22T01:57:17.601Z,573.54
2022-10-22T01:57:27.630Z,573.58
2022-10-22T01:57:37.602Z,573.68
2022-10-22T01:57:47.599Z,573.70
2022-10-22T01:57:57.601Z,573.63
2022-10-22T01:58:07.618Z,573.64
2022-10-22T01:58:17.605Z,573.73
2022-10-22T01:58:27.605Z,573.72
2022-10-22T01:58:37.603Z,573.69
2022-10-22T01:58:47.605Z,573.76
2022-10-22T01:58:57.605Z,573.75
2022-10-22T01:59:07.608Z,573.82
2022-10-22T01:59:17.606Z,573.84
2022-10-22T01:59:27.605Z,573.84
2022-10-22T01:59:37.610Z,573.82
2022-10-22T01:59:47.607Z,573.82
2022-10-22T01:59:57.609Z,573.85
2022-10-22T02:00:07.613Z,573.81
2022-10-22T02:00:17.614Z,573.88
2022-10-22T02:00:27.682Z,573.82
2022-10-22T02:00:37.661Z,573.90
2022-10-22T02:00:47.703Z,573.89
2022-10-22T02:00:57.627Z,573.90
2022-10-22T02:01:07.662Z,573.90
2022-10-22T02:01:17.616Z,573.82
2022-10-22T02:01:27.616Z,573.89
2022-10-22T02:01:37.620Z,573.88
2022-10-22T02:01:47.622Z,573.83
2022-10-22T02:01:57.617Z,573.87
2022-10-22T02:02:07.625Z,573.87
2022-10-22T02:02:17.627Z,573.89
2022-10-22T02:02:27.623Z,573.89
2022-10-22T02:02:37.784Z,573.83
2022-10-22T02:02:57.623Z,573.90
2022-10-22T02:03:07.613Z,573.87
2022-10-22T02:03:21.281Z,573.83
2022-10-22T02:03:28.642Z,573.85
2022-10-22T02:03:37.629Z,573.88
2022-10-22T02:03:47.630Z,573.92
2022-10-22T02:03:57.631Z,573.89
2022-10-22T02:04:07.633Z,573.90
2022-10-22T02:04:17.631Z,573.88
2022-10-22T02:04:27.631Z,573.85
2022-10-22T02:04:37.633Z,573.88
2022-10-22T02:04:47.632Z,573.90
2022-10-22T02:04:57.641Z,573.86
2022-10-22T02:05:07.635Z,573.94
2022-10-22T02:05:17.636Z,573.84